createdAt,value
2023-01-17T00:00:33.033Z,992.513762492
2023-01-17T00:01:32.416Z,992.513762492
2023-01-17T00:02:32.668Z,992.513762492
2023-01-17T00:03:32.540Z,992.513762492
2023-01-17T00:04:32.382Z,992.4121711280001
2023-01-17T00:05:32.403Z,992.513762492
2023-01-17T00:06:32.561Z,992.615353856
2023-01-17T00:07:32.430Z,992.513762492
2023-01-17T00:08:32.425Z,992.513762492
2023-01-17T00:09:32.437Z,992.615353856
2023-01-17T00:10:32.418Z,992.513762492
2023-01-17T00:11:32.430Z,992.615353856
2023-01-17T00:12:32.396Z,992.513762492
2023-01-17T00:13:32.412Z,992.4121711280001
2023-01-17T00:14:32.433Z,992.513762492
2023-01-17T00:15:32.424Z,992.4121711280001
2023-01-17T00:16:32.417Z,992.615353856
2023-01-17T00:17:32.394Z,992.4121711280001
2023-01-17T00:18:32.447Z,992.615353856
2023-01-17T00:19:32.453Z,992.513762492
2023-01-17T00:20:32.428Z,992.513762492
2023-01-17T00:21:32.407Z,992.513762492
2023-01-17T00:22:32.903Z,992.513762492
2023-01-17T00:23:32.395Z,992.513762492
2023-01-17T00:24:32.435Z,992.513762492
2023-01-17T00:25:32.411Z,992.310579764
2023-01-17T00:26:32.426Z,992.2089884
2023-01-17T00:27:32.422Z,992.615353856
2023-01-17T00:28:32.454Z,992.310579764
2023-01-17T00:29:32.410Z,992.2089884
2023-01-17T00:30:32.395Z,992.2089884
2023-01-17T00:31:32.466Z,992.2089884
2023-01-17T00:32:32.436Z,992.310579764
2023-01-17T00:33:32.477Z,992.1073970360001
2023-01-17T00:34:32.392Z,992.310579764
2023-01-17T00:35:32.365Z,992.4121711280001
2023-01-17T00:36:32.729Z,992.2089884
2023-01-17T00:37:32.415Z,992.4121711280001
2023-01-17T00:38:32.421Z,992.310579764
2023-01-17T00:39:32.399Z,992.2089884
2023-01-17T00:40:32.401Z,992.4121711280001
2023-01-17T00:41:32.409Z,992.513762492
2023-01-17T00:42:32.719Z,992.2089884
2023-01-17T00:43:32.412Z,992.4121711280001
2023-01-17T00:44:32.401Z,992.310579764
2023-01-17T00:45:32.464Z,992.4121711280001
2023-01-17T00:46:32.530Z,992.513762492
2023-01-17T00:47:32.385Z,992.615353856
2023-01-17T00:48:32.427Z,992.4121711280001
2023-01-17T00:49:32.507Z,992.513762492
2023-01-17T00:50:32.417Z,992.310579764
2023-01-17T00:51:32.416Z,992.4121711280001
2023-01-17T00:52:32.426Z,992.615353856
2023-01-17T00:53:32.398Z,992.513762492
2023-01-17T00:54:32.432Z,992.615353856
2023-01-17T00:55:32.407Z,992.4121711280001
2023-01-17T00:56:32.406Z,992.513762492
2023-01-17T00:57:32.422Z,992.310579764
2023-01-17T00:58:32.394Z,992.310579764
2023-01-17T00:59:32.408Z,992.513762492
2023-01-17T01:00:32.759Z,992.513762492
2023-01-17T01:01:32.507Z,992.4121711280001
2023-01-17T01:02:33.282Z,992.4121711280001
2023-01-17T01:03:32.407Z,992.4121711280001
2023-01-17T01:04:32.391Z,992.4121711280001
2023-01-17T01:05:32.396Z,992.310579764
2023-01-17T01:06:32.403Z,992.513762492
2023-01-17T01:07:32.345Z,992.4121711280001
2023-01-17T01:08:32.423Z,992.2089884
2023-01-17T01:09:32.417Z,992.4121711280001
2023-01-17T01:10:32.412Z,992.4121711280001
2023-01-17T01:11:32.357Z,992.310579764
2023-01-17T01:12:32.402Z,992.310579764
2023-01-17T01:13:32.382Z,992.310579764
2023-01-17T01:14:32.468Z,992.310579764
2023-01-17T01:15:32.395Z,992.615353856
2023-01-17T01:16:32.492Z,992.4121711280001
2023-01-17T01:17:32.384Z,992.4121711280001
2023-01-17T01:18:32.421Z,992.4121711280001
2023-01-17T01:19:32.394Z,992.615353856
2023-01-17T01:20:32.413Z,992.513762492
2023-01-17T01:21:32.366Z,992.310579764
2023-01-17T01:22:32.871Z,992.513762492
2023-01-17T01:23:32.340Z,992.310579764
2023-01-17T01:24:32.392Z,992.513762492
2023-01-17T01:25:32.414Z,992.2089884
2023-01-17T01:26:32.399Z,992.1073970360001
2023-01-17T01:27:32.346Z,992.310579764
2023-01-17T01:28:32.426Z,992.2089884
2023-01-17T01:29:32.397Z,992.2089884
2023-01-17T01:30:32.410Z,991.9380780960001
2023-01-17T01:31:32.418Z,992.2089884
2023-01-17T01:32:32.402Z,992.1073970360001
2023-01-17T01:33:32.376Z,992.2089884
2023-01-17T01:34:32.422Z,991.9380780960001
2023-01-17T01:35:32.375Z,992.03966946
2023-01-17T01:36:32.443Z,992.1073970360001
2023-01-17T01:37:32.449Z,992.03966946
2023-01-17T01:38:32.393Z,992.1073970360001
2023-01-17T01:39:32.353Z,991.836486732
2023-01-17T01:40:32.602Z,991.9380780960001
2023-01-17T01:41:32.479Z,992.1073970360001
2023-01-17T01:42:32.507Z,992.03966946
2023-01-17T01:43:32.503Z,991.9380780960001
2023-01-17T01:44:32.523Z,992.1073970360001
2023-01-17T01:45:32.612Z,992.03966946
2023-01-17T01:46:32.562Z,992.03966946
2023-01-17T01:47:32.514Z,991.734895368
2023-01-17T01:48:32.515Z,991.9380780960001
2023-01-17T01:49:32.494Z,991.836486732
2023-01-17T01:50:32.612Z,991.9380780960001
2023-01-17T01:51:32.459Z,991.836486732
2023-01-17T01:52:32.517Z,992.03966946
2023-01-17T01:53:32.541Z,991.9380780960001
2023-01-17T01:54:32.572Z,991.734895368
2023-01-17T01:55:32.362Z,991.9380780960001
2023-01-17T01:56:32.410Z,991.9380780960001
2023-01-17T01:57:32.457Z,991.9380780960001
2023-01-17T01:58:32.396Z,991.836486732
2023-01-17T01:59:32.314Z,992.03966946
2023-01-17T02:00:32.406Z,991.836486732
2023-01-17T02:01:32.549Z,991.9380780960001
2023-01-17T02:02:33.108Z,991.836486732
2023-01-17T02:03:32.432Z,991.734895368
2023-01-17T02:04:32.419Z,991.9380780960001
2023-01-17T02:05:32.418Z,991.9380780960001
2023-01-17T02:06:32.394Z,991.836486732
2023-01-17T02:07:32.348Z,991.836486732
2023-01-17T02:08:32.415Z,991.836486732
2023-01-17T02:09:32.410Z,991.836486732
2023-01-17T02:10:32.507Z,991.734895368
2023-01-17T02:11:32.290Z,991.734895368
2023-01-17T02:12:33.110Z,991.836486732
2023-01-17T02:13:32.408Z,991.9380780960001
2023-01-17T02:14:32.411Z,991.836486732
2023-01-17T02:15:32.306Z,991.734895368
2023-01-17T02:16:32.511Z,991.9380780960001
2023-01-17T02:17:32.412Z,991.9380780960001
2023-01-17T02:18:32.437Z,991.836486732
2023-01-17T02:19:32.317Z,991.734895368
2023-01-17T02:20:32.403Z,991.836486732
2023-01-17T02:21:32.430Z,991.836486732
2023-01-17T02:22:33.076Z,991.836486732
2023-01-17T02:23:32.340Z,991.734895368
2023-01-17T02:24:32.400Z,991.734895368
2023-01-17T02:25:32.388Z,991.430121276
2023-01-17T02:26:32.388Z,991.6333040040001
2023-01-17T02:27:32.353Z,991.734895368
2023-01-17T02:28:32.400Z,991.6333040040001
2023-01-17T02:29:32.388Z,991.430121276
2023-01-17T02:30:32.384Z,991.734895368
2023-01-17T02:31:32.338Z,991.6333040040001
2023-01-17T02:32:33.145Z,991.430121276
2023-01-17T02:33:32.417Z,991.53171264
2023-01-17T02:34:32.388Z,991.3285299120001
2023-01-17T02:35:32.326Z,991.226938548
2023-01-17T02:36:32.399Z,991.3285299120001
2023-01-17T02:37:32.379Z,991.3285299120001
2023-01-17T02:38:32.469Z,991.3285299120001
2023-01-17T02:39:32.365Z,991.430121276
2023-01-17T02:40:32.389Z,991.430121276
2023-01-17T02:41:32.381Z,991.6333040040001
2023-01-17T02:42:33.143Z,991.226938548
2023-01-17T02:43:32.281Z,991.3285299120001
2023-01-17T02:44:32.481Z,991.53171264
2023-01-17T02:45:32.465Z,991.430121276
2023-01-17T02:46:32.369Z,991.6333040040001
2023-01-17T02:47:32.299Z,991.430121276
2023-01-17T02:48:32.421Z,991.3285299120001
2023-01-17T02:49:32.416Z,991.430121276
2023-01-17T02:50:32.424Z,991.53171264
2023-01-17T02:51:32.305Z,991.53171264
2023-01-17T02:52:33.111Z,991.3285299120001
2023-01-17T02:53:32.408Z,991.53171264
2023-01-17T02:54:32.373Z,991.430121276
2023-01-17T02:55:32.314Z,991.734895368
2023-01-17T02:56:32.678Z,991.53171264
2023-01-17T02:57:32.378Z,991.53171264
2023-01-17T02:58:32.360Z,991.53171264
2023-01-17T02:59:32.294Z,991.6333040040001
2023-01-17T03:00:32.478Z,991.430121276
2023-01-17T03:01:32.513Z,991.430121276
2023-01-17T03:02:33.205Z,991.3285299120001
2023-01-17T03:03:32.288Z,991.226938548
2023-01-17T03:04:32.533Z,991.3285299120001
2023-01-17T03:05:32.410Z,991.430121276
2023-01-17T03:06:32.398Z,991.3285299120001
2023-01-17T03:07:32.305Z,991.53171264
2023-01-17T03:08:32.424Z,991.3285299120001
2023-01-17T03:09:32.412Z,991.6333040040001
2023-01-17T03:10:32.381Z,991.430121276
2023-01-17T03:11:32.319Z,991.430121276
2023-01-17T03:12:33.339Z,991.53171264
2023-01-17T03:13:32.388Z,991.430121276
2023-01-17T03:14:32.583Z,991.430121276
2023-01-17T03:15:32.252Z,991.53171264
2023-01-17T03:16:32.621Z,991.6333040040001
2023-01-17T03:17:32.527Z,991.6333040040001
2023-01-17T03:18:32.483Z,991.6333040040001
2023-01-17T03:19:32.294Z,991.53171264
2023-01-17T03:20:32.535Z,991.6333040040001
2023-01-17T03:21:32.384Z,991.53171264
2023-01-17T03:22:32.754Z,991.53171264
2023-01-17T03:23:32.297Z,991.6333040040001
2023-01-17T03:24:32.540Z,991.3285299120001
2023-01-17T03:25:32.406Z,991.53171264
2023-01-17T03:26:32.438Z,991.6333040040001
2023-01-17T03:27:32.461Z,991.53171264
2023-01-17T03:28:32.524Z,991.430121276
2023-01-17T03:29:32.497Z,991.430121276
2023-01-17T03:30:32.555Z,991.6333040040001
2023-01-17T03:31:32.293Z,991.734895368
2023-01-17T03:32:33.256Z,991.3285299120001
2023-01-17T03:33:32.401Z,991.430121276
2023-01-17T03:34:32.404Z,991.430121276
2023-01-17T03:35:32.250Z,991.3285299120001
2023-01-17T03:36:32.491Z,991.53171264
2023-01-17T03:37:32.524Z,991.53171264
2023-01-17T03:38:32.526Z,991.430121276
2023-01-17T03:39:32.283Z,991.430121276
2023-01-17T03:40:32.524Z,991.226938548
2023-01-17T03:41:32.509Z,991.430121276
2023-01-17T03:42:32.540Z,991.430121276
2023-01-17T03:43:32.304Z,991.430121276
2023-01-17T03:44:32.504Z,991.53171264
2023-01-17T03:45:32.598Z,991.3285299120001
2023-01-17T03:46:32.413Z,991.3285299120001
2023-01-17T03:47:32.407Z,991.430121276
2023-01-17T03:48:32.481Z,991.6333040040001
2023-01-17T03:49:32.471Z,991.430121276
2023-01-17T03:50:32.499Z,991.53171264
2023-01-17T03:51:32.248Z,991.53171264
2023-01-17T03:52:32.416Z,991.430121276
2023-01-17T03:53:32.467Z,991.6333040040001
2023-01-17T03:54:32.371Z,991.6333040040001
2023-01-17T03:55:32.292Z,991.430121276
2023-01-17T03:56:32.362Z,991.53171264
2023-01-17T03:57:32.381Z,991.53171264
2023-01-17T03:58:32.400Z,991.430121276
2023-01-17T03:59:32.275Z,991.836486732
2023-01-17T04:00:32.382Z,991.3285299120001
2023-01-17T04:01:32.576Z,991.430121276
2023-01-17T04:02:33.069Z,991.53171264
2023-01-17T04:03:32.269Z,991.226938548
2023-01-17T04:04:32.406Z,991.53171264
2023-01-17T04:05:32.430Z,991.53171264
2023-01-17T04:06:32.386Z,991.3285299120001
2023-01-17T04:07:32.253Z,991.430121276
2023-01-17T04:08:32.394Z,991.3285299120001
2023-01-17T04:09:32.490Z,991.430121276
2023-01-17T04:10:32.375Z,991.430121276
2023-01-17T04:11:32.238Z,991.53171264
2023-01-17T04:12:32.776Z,991.3285299120001
2023-01-17T04:13:32.402Z,991.3285299120001
2023-01-17T04:14:32.420Z,991.53171264
2023-01-17T04:15:32.256Z,991.6333040040001
2023-01-17T04:16:32.493Z,991.53171264
2023-01-17T04:17:32.396Z,991.53171264
2023-01-17T04:18:32.405Z,991.430121276
2023-01-17T04:19:32.221Z,991.430121276
2023-01-17T04:20:32.387Z,991.53171264
2023-01-17T04:21:32.390Z,991.3285299120001
2023-01-17T04:22:32.380Z,991.430121276
2023-01-17T04:23:32.251Z,991.430121276
2023-01-17T04:24:32.360Z,991.430121276
2023-01-17T04:25:32.425Z,991.3285299120001
2023-01-17T04:26:32.392Z,991.53171264
2023-01-17T04:27:32.291Z,991.226938548
2023-01-17T04:28:32.399Z,991.125347184
2023-01-17T04:29:32.402Z,991.6333040040001
2023-01-17T04:30:32.404Z,991.226938548
2023-01-17T04:31:32.328Z,991.0237558200001
2023-01-17T04:32:33.307Z,991.3285299120001
2023-01-17T04:33:32.447Z,991.3285299120001
2023-01-17T04:34:32.393Z,991.125347184
2023-01-17T04:35:32.608Z,991.3285299120001
2023-01-17T04:36:32.403Z,991.430121276
2023-01-17T04:37:32.395Z,991.226938548
2023-01-17T04:38:32.379Z,991.3285299120001
2023-01-17T04:39:32.320Z,991.3285299120001
2023-01-17T04:40:32.402Z,991.226938548
2023-01-17T04:41:32.428Z,991.3285299120001
2023-01-17T04:42:33.138Z,991.226938548
2023-01-17T04:43:32.262Z,991.0237558200001
2023-01-17T04:44:32.441Z,991.3285299120001
2023-01-17T04:45:32.451Z,991.3285299120001
2023-01-17T04:46:32.379Z,991.226938548
2023-01-17T04:47:32.278Z,991.0237558200001
2023-01-17T04:48:32.403Z,991.125347184
2023-01-17T04:49:32.423Z,991.3285299120001
2023-01-17T04:50:32.393Z,991.226938548
2023-01-17T04:51:32.286Z,991.125347184
2023-01-17T04:52:32.462Z,991.226938548
2023-01-17T04:53:32.479Z,991.3285299120001
2023-01-17T04:54:32.398Z,991.3285299120001
2023-01-17T04:55:32.222Z,991.226938548
2023-01-17T04:56:32.450Z,991.125347184
2023-01-17T04:57:32.431Z,991.0237558200001
2023-01-17T04:58:32.391Z,991.226938548
2023-01-17T04:59:32.230Z,991.125347184
2023-01-17T05:00:32.423Z,991.3285299120001
2023-01-17T05:01:32.716Z,990.922164456
2023-01-17T05:02:32.786Z,991.125347184
2023-01-17T05:03:32.271Z,991.3285299120001
2023-01-17T05:04:32.415Z,991.125347184
2023-01-17T05:05:32.400Z,991.226938548
2023-01-17T05:06:32.394Z,991.125347184
2023-01-17T05:07:33.880Z,991.125347184
2023-01-17T05:08:32.603Z,991.125347184
2023-01-17T05:09:32.403Z,991.226938548
2023-01-17T05:10:32.395Z,991.430121276
2023-01-17T05:11:32.203Z,991.125347184
2023-01-17T05:12:32.430Z,991.125347184
2023-01-17T05:13:32.392Z,991.125347184
2023-01-17T05:14:32.396Z,991.3285299120001
2023-01-17T05:15:32.572Z,991.125347184
2023-01-17T05:16:32.423Z,991.226938548
2023-01-17T05:17:32.409Z,991.0237558200001
2023-01-17T05:18:32.385Z,991.3285299120001
2023-01-17T05:19:32.288Z,991.0237558200001
2023-01-17T05:20:32.449Z,991.125347184
2023-01-17T05:21:32.419Z,991.0237558200001
2023-01-17T05:22:32.392Z,991.125347184
2023-01-17T05:23:32.190Z,991.0237558200001
2023-01-17T05:24:32.429Z,991.226938548
2023-01-17T05:25:32.379Z,991.226938548
2023-01-17T05:26:32.413Z,991.226938548
2023-01-17T05:27:32.194Z,991.125347184
2023-01-17T05:28:32.404Z,991.226938548
2023-01-17T05:29:32.407Z,991.0237558200001
2023-01-17T05:30:32.396Z,991.226938548
2023-01-17T05:31:32.298Z,991.125347184
2023-01-17T05:32:32.411Z,991.226938548
2023-01-17T05:33:32.408Z,991.125347184
2023-01-17T05:34:32.405Z,991.226938548
2023-01-17T05:35:32.241Z,991.0237558200001
2023-01-17T05:36:32.406Z,991.0237558200001
2023-01-17T05:37:32.395Z,991.125347184
2023-01-17T05:38:32.381Z,991.226938548
2023-01-17T05:39:32.222Z,991.125347184
2023-01-17T05:40:32.428Z,991.226938548
2023-01-17T05:41:32.380Z,991.0237558200001
2023-01-17T05:42:32.401Z,991.125347184
2023-01-17T05:43:32.179Z,991.0237558200001
2023-01-17T05:44:32.410Z,991.125347184
2023-01-17T05:45:32.398Z,990.922164456
2023-01-17T05:46:32.410Z,990.922164456
2023-01-17T05:47:32.228Z,991.0237558200001
2023-01-17T05:48:32.405Z,990.922164456
2023-01-17T05:49:32.411Z,991.0237558200001
2023-01-17T05:50:32.374Z,990.922164456
2023-01-17T05:51:32.221Z,990.922164456
2023-01-17T05:52:33.250Z,991.125347184
2023-01-17T05:53:32.419Z,990.820573092
2023-01-17T05:54:32.587Z,990.922164456
2023-01-17T05:55:32.207Z,990.820573092
2023-01-17T05:56:32.403Z,990.922164456
2023-01-17T05:57:32.410Z,991.0237558200001
2023-01-17T05:58:32.412Z,990.922164456
2023-01-17T05:59:36.931Z,991.0237558200001
2023-01-17T06:00:32.365Z,991.125347184
2023-01-17T06:01:32.440Z,991.125347184
2023-01-17T06:02:32.583Z,991.0237558200001
2023-01-17T06:03:32.254Z,990.922164456
2023-01-17T06:04:32.447Z,991.0237558200001
2023-01-17T06:05:32.393Z,990.820573092
2023-01-17T06:06:32.464Z,991.125347184
2023-01-17T06:07:32.239Z,991.430121276
2023-01-17T06:08:32.378Z,991.3285299120001
2023-01-17T06:09:32.441Z,991.226938548
2023-01-17T06:10:32.440Z,991.430121276
2023-01-17T06:11:32.212Z,991.125347184
2023-01-17T06:12:32.444Z,991.430121276
2023-01-17T06:13:32.403Z,991.125347184
2023-01-17T06:14:32.387Z,991.3285299120001
2023-01-17T06:15:32.185Z,991.125347184
2023-01-17T06:16:32.400Z,990.922164456
2023-01-17T06:17:32.431Z,991.125347184
2023-01-17T06:18:32.416Z,991.3285299120001
2023-01-17T06:19:32.216Z,990.922164456
2023-01-17T06:20:32.338Z,991.125347184
2023-01-17T06:21:32.412Z,991.0237558200001
2023-01-17T06:22:32.471Z,991.3285299120001
2023-01-17T06:23:32.211Z,991.226938548
2023-01-17T06:24:32.367Z,991.226938548
2023-01-17T06:25:32.412Z,991.0237558200001
2023-01-17T06:26:32.392Z,991.0237558200001
2023-01-17T06:27:32.299Z,991.0237558200001
2023-01-17T06:28:32.379Z,991.226938548
2023-01-17T06:29:32.415Z,991.125347184
2023-01-17T06:30:32.436Z,991.0237558200001
2023-01-17T06:31:32.260Z,991.125347184
2023-01-17T06:32:32.466Z,990.922164456
2023-01-17T06:33:32.422Z,991.125347184
2023-01-17T06:34:32.380Z,991.430121276
2023-01-17T06:35:32.218Z,991.0237558200001
2023-01-17T06:36:32.357Z,991.125347184
2023-01-17T06:37:32.378Z,991.125347184
2023-01-17T06:38:32.382Z,991.3285299120001
2023-01-17T06:39:32.202Z,991.226938548
2023-01-17T06:40:32.363Z,990.922164456
2023-01-17T06:41:32.413Z,991.0237558200001
2023-01-17T06:42:33.495Z,991.226938548
2023-01-17T06:43:32.296Z,991.0237558200001
2023-01-17T06:44:32.374Z,991.125347184
2023-01-17T06:45:32.412Z,991.226938548
2023-01-17T06:46:32.452Z,991.125347184
2023-01-17T06:47:32.200Z,991.125347184
2023-01-17T06:48:32.351Z,991.125347184
2023-01-17T06:49:32.395Z,991.0237558200001
2023-01-17T06:50:32.366Z,990.820573092
2023-01-17T06:51:32.182Z,991.0237558200001
2023-01-17T06:52:32.354Z,991.125347184
2023-01-17T06:53:32.414Z,991.0237558200001
2023-01-17T06:54:32.395Z,991.125347184
2023-01-17T06:55:32.353Z,990.820573092
2023-01-17T06:56:32.383Z,991.0237558200001
2023-01-17T06:57:32.401Z,991.125347184
2023-01-17T06:58:32.360Z,991.0237558200001
2023-01-17T06:59:32.206Z,990.820573092
2023-01-17T07:00:32.434Z,991.0237558200001
2023-01-17T07:01:32.840Z,990.922164456
2023-01-17T07:02:32.665Z,990.820573092
2023-01-17T07:03:32.214Z,990.922164456
2023-01-17T07:04:32.441Z,990.7189817279999
2023-01-17T07:05:32.414Z,990.820573092
2023-01-17T07:06:32.380Z,990.515799
2023-01-17T07:07:33.736Z,990.515799
2023-01-17T07:08:32.405Z,990.4142076359999
2023-01-17T07:09:32.396Z,990.7189817279999
2023-01-17T07:10:32.357Z,990.515799
2023-01-17T07:11:32.224Z,990.617390364
2023-01-17T07:12:32.406Z,990.617390364
2023-01-17T07:13:33.394Z,990.617390364
2023-01-17T07:14:32.349Z,990.617390364
2023-01-17T07:15:32.201Z,990.617390364
2023-01-17T07:16:32.371Z,990.4142076359999
2023-01-17T07:17:32.394Z,990.617390364
2023-01-17T07:18:32.370Z,990.820573092
2023-01-17T07:19:32.187Z,990.7189817279999
2023-01-17T07:20:32.370Z,990.515799
2023-01-17T07:21:32.382Z,990.820573092
2023-01-17T07:22:32.399Z,990.922164456
2023-01-17T07:23:32.217Z,990.7189817279999
2023-01-17T07:24:32.389Z,990.7189817279999
2023-01-17T07:25:32.438Z,990.820573092
2023-01-17T07:26:32.362Z,990.7189817279999
2023-01-17T07:27:32.214Z,990.820573092
2023-01-17T07:28:32.392Z,990.7189817279999
2023-01-17T07:29:32.397Z,991.0237558200001
2023-01-17T07:30:32.374Z,990.820573092
2023-01-17T07:31:32.222Z,990.922164456
2023-01-17T07:32:33.411Z,990.820573092
2023-01-17T07:33:32.376Z,990.7189817279999
2023-01-17T07:34:32.375Z,990.922164456
2023-01-17T07:35:32.176Z,990.7189817279999
2023-01-17T07:36:32.360Z,990.820573092
2023-01-17T07:37:32.429Z,990.820573092
2023-01-17T07:38:32.359Z,990.820573092
2023-01-17T07:39:32.203Z,990.7189817279999
2023-01-17T07:40:38.605Z,990.922164456
2023-01-17T07:41:32.462Z,990.7189817279999
2023-01-17T07:42:32.390Z,990.7189817279999
2023-01-17T07:43:32.206Z,990.515799
2023-01-17T07:44:32.361Z,990.515799
2023-01-17T07:45:32.385Z,990.312616272
2023-01-17T07:46:32.525Z,990.515799
2023-01-17T07:47:32.186Z,990.515799
2023-01-17T07:48:32.372Z,990.515799
2023-01-17T07:49:32.341Z,990.4142076359999
2023-01-17T07:50:32.405Z,990.7189817279999
2023-01-17T07:51:32.153Z,990.515799
2023-01-17T07:52:32.681Z,990.211024908
2023-01-17T07:53:32.444Z,990.4142076359999
2023-01-17T07:54:32.374Z,990.4142076359999
2023-01-17T07:55:32.339Z,990.4142076359999
2023-01-17T07:56:32.371Z,990.4142076359999
2023-01-17T07:57:32.382Z,990.312616272
2023-01-17T07:58:32.367Z,990.312616272
2023-01-17T07:59:32.421Z,990.211024908
2023-01-17T08:00:32.373Z,990.312616272
2023-01-17T08:01:32.597Z,990.4142076359999
2023-01-17T08:02:32.979Z,990.312616272
2023-01-17T08:03:32.231Z,990.515799
2023-01-17T08:04:32.355Z,990.312616272
2023-01-17T08:05:32.415Z,990.617390364
2023-01-17T08:06:32.379Z,990.515799
2023-01-17T08:07:32.184Z,990.312616272
2023-01-17T08:08:32.405Z,990.312616272
2023-01-17T08:09:32.426Z,990.211024908
2023-01-17T08:10:32.413Z,990.617390364
2023-01-17T08:11:32.405Z,990.4142076359999
2023-01-17T08:12:32.408Z,990.4142076359999
2023-01-17T08:13:32.380Z,990.312616272
2023-01-17T08:14:32.347Z,990.4142076359999
2023-01-17T08:15:32.203Z,990.312616272
2023-01-17T08:16:32.516Z,990.4142076359999
2023-01-17T08:17:32.425Z,990.4142076359999
2023-01-17T08:18:32.364Z,990.515799
2023-01-17T08:19:32.172Z,990.312616272
2023-01-17T08:20:32.368Z,990.7189817279999
2023-01-17T08:21:32.375Z,990.4142076359999
2023-01-17T08:22:32.715Z,990.211024908
2023-01-17T08:23:32.123Z,990.4142076359999
2023-01-17T08:24:32.475Z,990.4142076359999
2023-01-17T08:25:32.454Z,990.211024908
2023-01-17T08:26:32.383Z,990.4142076359999
2023-01-17T08:27:32.251Z,990.515799
2023-01-17T08:28:32.382Z,990.312616272
2023-01-17T08:29:32.389Z,990.312616272
2023-01-17T08:30:32.366Z,990.312616272
2023-01-17T08:31:32.323Z,990.211024908
2023-01-17T08:32:32.608Z,990.312616272
2023-01-17T08:33:32.391Z,990.1094335439999
2023-01-17T08:34:32.336Z,990.211024908
2023-01-17T08:35:32.909Z,990.312616272
2023-01-17T08:36:32.356Z,990.4142076359999
2023-01-17T08:37:32.401Z,990.312616272
2023-01-17T08:38:32.391Z,990.4142076359999
2023-01-17T08:39:32.126Z,990.4142076359999
2023-01-17T08:40:32.410Z,990.4142076359999
2023-01-17T08:41:32.403Z,990.515799
2023-01-17T08:42:32.376Z,990.312616272
2023-01-17T08:43:32.225Z,990.515799
2023-01-17T08:44:32.365Z,990.4142076359999
2023-01-17T08:45:32.388Z,990.211024908
2023-01-17T08:46:32.980Z,990.312616272
2023-01-17T08:47:32.174Z,990.515799
2023-01-17T08:48:32.368Z,990.1094335439999
2023-01-17T08:49:32.334Z,990.211024908
2023-01-17T08:50:32.382Z,990.312616272
2023-01-17T08:51:32.161Z,990.312616272
2023-01-17T08:52:32.946Z,990.4142076359999
2023-01-17T08:53:32.352Z,990.312616272
2023-01-17T08:54:32.380Z,990.312616272
2023-01-17T08:55:32.167Z,990.00784218
2023-01-17T08:56:32.376Z,990.211024908
2023-01-17T08:57:32.354Z,990.1094335439999
2023-01-17T08:58:32.402Z,990.1094335439999
2023-01-17T08:59:32.145Z,990.1094335439999
2023-01-17T09:00:32.363Z,990.1094335439999
2023-01-17T09:01:32.474Z,990.1094335439999
2023-01-17T09:02:32.794Z,990.1094335439999
2023-01-17T09:03:32.212Z,990.1094335439999
2023-01-17T09:04:32.531Z,990.312616272
2023-01-17T09:05:32.495Z,990.211024908
2023-01-17T09:06:32.395Z,990.1094335439999
2023-01-17T09:07:32.129Z,990.00784218
2023-01-17T09:08:32.389Z,990.1094335439999
2023-01-17T09:09:32.364Z,990.211024908
2023-01-17T09:10:32.398Z,990.211024908
2023-01-17T09:11:32.135Z,990.1094335439999
2023-01-17T09:12:32.770Z,990.211024908
2023-01-17T09:13:32.406Z,990.1094335439999
2023-01-17T09:14:32.460Z,990.00784218
2023-01-17T09:15:33.152Z,990.00784218
2023-01-17T09:16:32.425Z,990.00784218
2023-01-17T09:17:32.388Z,989.906250816
2023-01-17T09:18:32.428Z,989.8385232400001
2023-01-17T09:19:32.133Z,990.1094335439999
2023-01-17T09:20:32.348Z,990.00784218
2023-01-17T09:21:32.387Z,990.00784218
2023-01-17T09:22:32.640Z,989.8385232400001
2023-01-17T09:23:32.156Z,989.906250816
2023-01-17T09:24:32.368Z,990.1094335439999
2023-01-17T09:25:32.365Z,989.906250816
2023-01-17T09:26:32.398Z,989.8385232400001
2023-01-17T09:27:32.102Z,989.736931876
2023-01-17T09:28:32.340Z,989.8385232400001
2023-01-17T09:29:32.360Z,989.8385232400001
2023-01-17T09:30:32.415Z,989.8385232400001
2023-01-17T09:31:32.128Z,989.8385232400001
2023-01-17T09:32:32.768Z,989.906250816
2023-01-17T09:33:32.374Z,990.00784218
2023-01-17T09:34:32.364Z,989.8385232400001
2023-01-17T09:35:32.135Z,989.736931876
2023-01-17T09:36:32.398Z,989.906250816
2023-01-17T09:37:32.413Z,990.00784218
2023-01-17T09:38:32.353Z,989.8385232400001
2023-01-17T09:39:32.122Z,989.906250816
2023-01-17T09:40:32.325Z,989.8385232400001
2023-01-17T09:41:32.376Z,989.635340512
2023-01-17T09:42:33.322Z,989.736931876
2023-01-17T09:43:32.123Z,989.736931876
2023-01-17T09:44:32.365Z,989.635340512
2023-01-17T09:45:32.433Z,989.5337491480001
2023-01-17T09:46:32.362Z,989.736931876
2023-01-17T09:47:32.191Z,989.736931876
2023-01-17T09:48:32.355Z,989.5337491480001
2023-01-17T09:49:32.397Z,989.5337491480001
2023-01-17T09:50:32.902Z,989.635340512
2023-01-17T09:51:32.123Z,989.5337491480001
2023-01-17T09:52:33.606Z,989.635340512
2023-01-17T09:53:32.392Z,989.5337491480001
2023-01-17T09:54:32.357Z,989.5337491480001
2023-01-17T09:55:32.101Z,989.5337491480001